Albany, OR

1:48 PM PDT on October 24, 2014 (GMT -0700)
South Shore | Change Station
CLOSE
Current Station
Personal Weather Station
Location: Albany, OR
Elevation: 222 ft
Nearby Weather Stations
Active Advisory: Special Statement

Elev 222 ft 44.63 °N, 123.07 °W | Updated 10 seconds ago

Rain
Rain
52.4 °F
Feels Like 52.4 °F
N
0.0
Wind Variable Wind from North
Gusts 7.0 mph

Today
High -- | Low -- °F
--% Chance of Precip.
Yesterday
High -- | Low -- °F
Precip. -- in
7:39 AM 6:12 PM
New Moon, 1% visible
Pressure 29.90 in
Visibility 7.0 miles
Clouds Few 6500 ft
Few 7000 ft
Overcast 9000 ft
Dew Point 50 °F
Humidity 93%
Rainfall 0.07 in
Snow Depth Not available.
UV 1 out of 12
Pollen .30 out of 12
PM2.5 Moderate
Flu Activity Sporadic
METAR KCVO 242035Z AUTO 00000KT 7SM FEW065 FEW070 OVC090 12/11 A2990 RMK AO1 P0004

More Conditions Fewer Conditions

Pressure 29.90 in
Visibility 7.0 miles
Clouds Few 6500 ft
Few 7000 ft
Overcast 9000 ft
Dew Point 50 °F
Humidity 93%
Rainfall 0.07 in
Snow Depth Not available.
UV 1 out of 12
Pollen .30 out of 12
PM2.5 Moderate
Flu Activity Sporadic
METAR KCVO 242035Z AUTO 00000KT 7SM FEW065 FEW070 OVC090 12/11 A2990 RMK AO1 P0004

More Conditions Fewer Conditions

10-Day Weather Forecast

Almanac

Astronomy

Oct. 24, 2014 Rise Set
Actual Time 7:39 AM PDT 6:12 PM PDT
Civil Twilight 7:09 AM PDT 6:42 PM PDT
Nautical Twilight 6:35 AM PDT 7:16 PM PDT
Astronomical Twilight 6:01 AM PDT 7:50 PM PDT
Moon 8:25 AM PDT 6:54 PM PDT
Length of Visible Light 11h 33m
Length of Day
10h 33m
Tomorrow will be 2m 53s shorter.
New Moon, 1% of the Moon is Illuminated
Today
New Moon
Oct 30
First Quarter
Nov 6
Full
Nov 14
Last Quarter
Nov 22
New

Today's Extremes

State Highs State Lows

Community

WunderPhotos

Upload Photos

1,764,654 photos uploaded!

Nearby

Air Quality

  Air Quality AQ Index Pollutant
Yesterday Good
PM2.5
Current Moderate
PM2.5
Friday Good
PM2.5
Saturday Good
PM2.5

Snow Depth

Station Depth Elevation
Jump Off Joe 0 in 3500 ft
Daly Lake 0 in 3600 ft
Marion Forks 0 in 2600 ft
Santiam Junction 0 in 3750 ft
Hogg Pass 1 in 4760 ft

Earthquake Activity

City Distance Mag. Time & Date
No recent earthquake activity has been reported nearby.
Minimum magnitude displayed is 2.5.

Coastal Water Temperatures

Place Temperature
No Stations Reporting

Nearby Weather Stations